sensor_id;sensor_type;location;lat;lon;timestamp;temperature;humidity
1778;DHT22;71547;50.146;8.174;2024-03-08T00:01:05;3.90;99.90
1778;DHT22;71547;50.146;8.174;2024-03-08T00:03:38;3.90;99.90
1778;DHT22;71547;50.146;8.174;2024-03-08T00:06:08;3.90;99.90
1778;DHT22;71547;50.146;8.174;2024-03-08T00:08:35;3.90;99.90
1778;DHT22;71547;50.146;8.174;2024-03-08T00:11:05;3.90;99.90
1778;DHT22;71547;50.146;8.174;2024-03-08T00:13:38;3.80;99.90
1778;DHT22;71547;50.146;8.174;2024-03-08T00:16:11;3.80;99.90
1778;DHT22;71547;50.146;8.174;2024-03-08T00:18:42;3.80;99.90
1778;DHT22;71547;50.146;8.174;2024-03-08T00:21:11;3.80;99.90
1778;DHT22;71547;50.146;8.174;2024-03-08T00:23:39;3.70;99.90
1778;DHT22;71547;50.146;8.174;2024-03-08T00:26:09;3.70;99.90
1778;DHT22;71547;50.146;8.174;2024-03-08T00:28:39;3.70;99.90
1778;DHT22;71547;50.146;8.174;2024-03-08T00:31:06;3.70;99.90
1778;DHT22;71547;50.146;8.174;2024-03-08T00:33:45;3.60;99.90
1778;DHT22;71547;50.146;8.174;2024-03-08T00:36:12;3.60;99.90
1778;DHT22;71547;50.146;8.174;2024-03-08T00:38:42;3.50;99.90
1778;DHT22;71547;50.146;8.174;2024-03-08T00:41:11;3.50;99.90
1778;DHT22;71547;50.146;8.174;2024-03-08T00:43:43;3.50;99.90
1778;DHT22;71547;50.146;8.174;2024-03-08T00:46:15;3.40;99.90
1778;DHT22;71547;50.146;8.174;2024-03-08T00:48:46;3.40;99.90
1778;DHT22;71547;50.146;8.174;2024-03-08T00:51:19;3.40;99.90
1778;DHT22;71547;50.146;8.174;2024-03-08T00:53:50;3.30;99.90
1778;DHT22;71547;50.146;8.174;2024-03-08T00:56:25;3.30;99.90
1778;DHT22;71547;50.146;8.174;2024-03-08T00:58:54;3.30;99.90
1778;DHT22;71547;50.146;8.174;2024-03-08T01:01:24;3.30;99.90
1778;DHT22;71547;50.146;8.174;2024-03-08T01:03:55;3.30;99.90
1778;DHT22;71547;50.146;8.174;2024-03-08T01:06:27;3.20;99.90
1778;DHT22;71547;50.146;8.174;2024-03-08T01:08:58;3.20;99.90
1778;DHT22;71547;50.146;8.174;2024-03-08T01:11:25;3.30;99.90
1778;DHT22;71547;50.146;8.174;2024-03-08T01:14:05;3.30;99.90
1778;DHT22;71547;50.146;8.174;2024-03-08T01:16:33;3.30;99.90
1778;DHT22;71547;50.146;8.174;2024-03-08T01:19:02;3.30;99.90
1778;DHT22;71547;50.146;8.174;2024-03-08T01:21:40;3.30;99.90
1778;DHT22;71547;50.146;8.174;2024-03-08T01:24:15;3.30;99.90
1778;DHT22;71547;50.146;8.174;2024-03-08T01:26:44;3.40;99.90
1778;DHT22;71547;50.146;8.174;2024-03-08T01:29:16;3.40;99.90
1778;DHT22;71547;50.146;8.174;2024-03-08T01:31:43;3.40;99.90
1778;DHT22;71547;50.146;8.174;2024-03-08T01:34:12;3.40;99.90
1778;DHT22;71547;50.146;8.174;2024-03-08T01:36:44;3.40;99.90
1778;DHT22;71547;50.146;8.174;2024-03-08T01:39:14;3.40;99.90
1778;DHT22;71547;50.146;8.174;2024-03-08T01:41:41;3.40;99.90
1778;DHT22;71547;50.146;8.174;2024-03-08T01:44:11;3.40;99.90
1778;DHT22;71547;50.146;8.174;2024-03-08T01:46:41;3.40;99.90
1778;DHT22;71547;50.146;8.174;2024-03-08T01:49:15;3.40;99.90
1778;DHT22;71547;50.146;8.174;2024-03-08T01:51:49;3.30;99.90
1778;DHT22;71547;50.146;8.174;2024-03-08T01:54:20;3.30;99.90
1778;DHT22;71547;50.146;8.174;2024-03-08T01:56:47;3.30;99.90
1778;DHT22;71547;50.146;8.174;2024-03-08T01:59:22;3.20;99.90
1778;DHT22;71547;50.146;8.174;2024-03-08T02:02:05;3.20;99.90
1778;DHT22;71547;50.146;8.174;2024-03-08T02:04:37;3.20;99.90
1778;DHT22;71547;50.146;8.174;2024-03-08T02:07:18;3.20;99.90
1778;DHT22;71547;50.146;8.174;2024-03-08T02:09:47;3.20;99.90
1778;DHT22;71547;50.146;8.174;2024-03-08T02:12:17;3.20;99.90
1778;DHT22;71547;50.146;8.174;2024-03-08T02:14:44;3.20;99.90
1778;DHT22;71547;50.146;8.174;2024-03-08T02:17:14;3.30;99.90
1778;DHT22;71547;50.146;8.174;2024-03-08T02:19:42;3.20;99.90
1778;DHT22;71547;50.146;8.174;2024-03-08T02:22:16;3.10;99.90
1778;DHT22;71547;50.146;8.174;2024-03-08T02:24:44;3.20;99.90
1778;DHT22;71547;50.146;8.174;2024-03-08T02:27:23;3.10;99.90
1778;DHT22;71547;50.146;8.174;2024-03-08T02:29:51;3.10;99.90
1778;DHT22;71547;50.146;8.174;2024-03-08T02:32:25;3.20;99.90
1778;DHT22;71547;50.146;8.174;2024-03-08T02:34:56;3.20;99.90
1778;DHT22;71547;50.146;8.174;2024-03-08T02:37:34;3.20;99.90
1778;DHT22;71547;50.146;8.174;2024-03-08T02:40:05;3.10;99.90
1778;DHT22;71547;50.146;8.174;2024-03-08T02:42:34;3.00;99.90
1778;DHT22;71547;50.146;8.174;2024-03-08T02:45:03;3.00;99.90
1778;DHT22;71547;50.146;8.174;2024-03-08T02:47:36;3.00;99.90
1778;DHT22;71547;50.146;8.174;2024-03-08T02:50:09;3.00;99.90
1778;DHT22;71547;50.146;8.174;2024-03-08T02:52:47;3.00;99.90
1778;DHT22;71547;50.146;8.174;2024-03-08T02:55:15;3.00;99.90
1778;DHT22;71547;50.146;8.174;2024-03-08T02:57:43;2.90;99.90
1778;DHT22;71547;50.146;8.174;2024-03-08T03:00:11;2.90;99.90
1778;DHT22;71547;50.146;8.174;2024-03-08T03:02:45;2.90;99.90
1778;DHT22;71547;50.146;8.174;2024-03-08T03:05:17;2.90;99.90
1778;DHT22;71547;50.146;8.174;2024-03-08T03:07:47;2.90;99.90
1778;DHT22;71547;50.146;8.174;2024-03-08T03:10:19;2.90;99.90
1778;DHT22;71547;50.146;8.174;2024-03-08T03:12:52;2.90;99.90
1778;DHT22;71547;50.146;8.174;2024-03-08T03:15:24;2.90;99.90
1778;DHT22;71547;50.146;8.174;2024-03-08T03:17:54;2.90;99.90
1778;DHT22;71547;50.146;8.174;2024-03-08T03:20:24;2.90;99.90
1778;DHT22;71547;50.146;8.174;2024-03-08T03:23:01;2.90;99.90
1778;DHT22;71547;50.146;8.174;2024-03-08T03:25:30;2.90;99.90
1778;DHT22;71547;50.146;8.174;2024-03-08T03:28:06;2.90;99.90
1778;DHT22;71547;50.146;8.174;2024-03-08T03:30:35;2.80;99.90
1778;DHT22;71547;50.146;8.174;2024-03-08T03:33:04;2.90;99.90
1778;DHT22;71547;50.146;8.174;2024-03-08T03:35:35;2.80;99.90
1778;DHT22;71547;50.146;8.174;2024-03-08T03:38:07;2.80;99.90
1778;DHT22;71547;50.146;8.174;2024-03-08T03:40:38;2.80;99.90
1778;DHT22;71547;50.146;8.174;2024-03-08T03:43:08;2.70;99.90
1778;DHT22;71547;50.146;8.174;2024-03-08T03:45:41;2.70;99.90
1778;DHT22;71547;50.146;8.174;2024-03-08T03:48:09;2.70;99.90
1778;DHT22;71547;50.146;8.174;2024-03-08T03:50:48;2.70;99.90
1778;DHT22;71547;50.146;8.174;2024-03-08T03:53:20;2.70;99.90
1778;DHT22;71547;50.146;8.174;2024-03-08T03:55:48;2.70;99.90
1778;DHT22;71547;50.146;8.174;2024-03-08T03:58:16;2.70;99.90
1778;DHT22;71547;50.146;8.174;2024-03-08T04:00:50;2.60;99.90
1778;DHT22;71547;50.146;8.174;2024-03-08T04:03:19;2.60;99.90
1778;DHT22;71547;50.146;8.174;2024-03-08T04:05:52;2.70;99.90
1778;DHT22;71547;50.146;8.174;2024-03-08T04:08:23;2.60;99.90
1778;DHT22;71547;50.146;8.174;2024-03-08T04:10:51;2.60;99.90
1778;DHT22;71547;50.146;8.174;2024-03-08T04:13:20;2.60;99.90
1778;DHT22;71547;50.146;8.174;2024-03-08T04:15:47;2.60;99.90
1778;DHT22;71547;50.146;8.174;2024-03-08T04:18:18;2.60;99.90
1778;DHT22;71547;50.146;8.174;2024-03-08T04:20:52;2.60;99.90
1778;DHT22;71547;50.146;8.174;2024-03-08T04:23:23;2.60;99.90
1778;DHT22;71547;50.146;8.174;2024-03-08T04:25:55;2.60;99.90
1778;DHT22;71547;50.146;8.174;2024-03-08T04:28:22;2.60;99.90
1778;DHT22;71547;50.146;8.174;2024-03-08T04:30:58;2.60;99.90
1778;DHT22;71547;50.146;8.174;2024-03-08T04:33:27;2.60;99.90
1778;DHT22;71547;50.146;8.174;2024-03-08T04:36:00;2.60;99.90
1778;DHT22;71547;50.146;8.174;2024-03-08T04:38:36;2.50;99.90
1778;DHT22;71547;50.146;8.174;2024-03-08T04:41:04;2.50;99.90
1778;DHT22;71547;50.146;8.174;2024-03-08T04:43:34;2.40;99.90
1778;DHT22;71547;50.146;8.174;2024-03-08T04:46:04;2.50;99.90
1778;DHT22;71547;50.146;8.174;2024-03-08T04:48:34;2.60;99.90
1778;DHT22;71547;50.146;8.174;2024-03-08T04:51:10;2.50;99.90
1778;DHT22;71547;50.146;8.174;2024-03-08T04:53:43;2.50;99.90
1778;DHT22;71547;50.146;8.174;2024-03-08T04:56:16;2.50;99.90
1778;DHT22;71547;50.146;8.174;2024-03-08T04:58:46;2.50;99.90
1778;DHT22;71547;50.146;8.174;2024-03-08T05:01:22;2.50;99.90
1778;DHT22;71547;50.146;8.174;2024-03-08T05:03:49;2.40;99.90
1778;DHT22;71547;50.146;8.174;2024-03-08T05:06:27;2.50;99.90
1778;DHT22;71547;50.146;8.174;2024-03-08T05:08:58;2.50;99.90
1778;DHT22;71547;50.146;8.174;2024-03-08T05:11:25;2.50;99.90
1778;DHT22;71547;50.146;8.174;2024-03-08T05:13:55;2.50;99.90
1778;DHT22;71547;50.146;8.174;2024-03-08T05:16:28;2.40;99.90
1778;DHT22;71547;50.146;8.174;2024-03-08T05:18:55;2.50;99.90
1778;DHT22;71547;50.146;8.174;2024-03-08T05:21:26;2.50;99.90
1778;DHT22;71547;50.146;8.174;2024-03-08T05:24:01;2.50;99.90
1778;DHT22;71547;50.146;8.174;2024-03-08T05:26:30;2.50;99.90
1778;DHT22;71547;50.146;8.174;2024-03-08T05:28:57;2.50;99.90
1778;DHT22;71547;50.146;8.174;2024-03-08T05:31:27;2.50;99.90
1778;DHT22;71547;50.146;8.174;2024-03-08T05:33:55;2.50;99.90
1778;DHT22;71547;50.146;8.174;2024-03-08T05:36:26;2.60;99.90
1778;DHT22;71547;50.146;8.174;2024-03-08T05:38:53;2.60;99.90
1778;DHT22;71547;50.146;8.174;2024-03-08T05:41:22;2.60;99.90
1778;DHT22;71547;50.146;8.174;2024-03-08T05:43:49;2.60;99.90
1778;DHT22;71547;50.146;8.174;2024-03-08T05:46:16;2.70;99.90
1778;DHT22;71547;50.146;8.174;2024-03-08T05:48:45;2.60;99.90
1778;DHT22;71547;50.146;8.174;2024-03-08T05:51:12;2.70;99.90
1778;DHT22;71547;50.146;8.174;2024-03-08T05:53:39;2.60;99.90
1778;DHT22;71547;50.146;8.174;2024-03-08T05:56:06;2.70;99.90
1778;DHT22;71547;50.146;8.174;2024-03-08T05:58:37;2.70;99.90
1778;DHT22;71547;50.146;8.174;2024-03-08T06:01:04;2.70;99.90
1778;DHT22;71547;50.146;8.174;2024-03-08T06:03:34;2.70;99.90
1778;DHT22;71547;50.146;8.174;2024-03-08T06:06:01;2.70;99.90
1778;DHT22;71547;50.146;8.174;2024-03-08T06:08:29;2.70;99.90
1778;DHT22;71547;50.146;8.174;2024-03-08T06:10:57;2.70;99.90
1778;DHT22;71547;50.146;8.174;2024-03-08T06:13:26;2.60;99.90
1778;DHT22;71547;50.146;8.174;2024-03-08T06:15:57;2.70;99.90
1778;DHT22;71547;50.146;8.174;2024-03-08T06:18:24;2.70;99.90
1778;DHT22;71547;50.146;8.174;2024-03-08T06:20:52;2.70;99.90
1778;DHT22;71547;50.146;8.174;2024-03-08T06:23:22;2.80;99.90
1778;DHT22;71547;50.146;8.174;2024-03-08T06:25:49;2.80;99.90
1778;DHT22;71547;50.146;8.174;2024-03-08T06:28:16;2.70;99.90
1778;DHT22;71547;50.146;8.174;2024-03-08T06:30:44;2.70;99.90
1778;DHT22;71547;50.146;8.174;2024-03-08T06:33:12;2.80;99.90
1778;DHT22;71547;50.146;8.174;2024-03-08T06:35:39;2.80;99.90
1778;DHT22;71547;50.146;8.174;2024-03-08T06:38:07;2.80;99.90
1778;DHT22;71547;50.146;8.174;2024-03-08T06:40:34;2.80;99.90
1778;DHT22;71547;50.146;8.174;2024-03-08T06:43:01;2.80;99.90
1778;DHT22;71547;50.146;8.174;2024-03-08T06:45:28;2.80;99.90
1778;DHT22;71547;50.146;8.174;2024-03-08T06:47:55;2.80;99.90
1778;DHT22;71547;50.146;8.174;2024-03-08T06:50:24;2.90;99.90
1778;DHT22;71547;50.146;8.174;2024-03-08T06:52:51;2.90;99.90
1778;DHT22;71547;50.146;8.174;2024-03-08T06:55:20;2.80;99.90
1778;DHT22;71547;50.146;8.174;2024-03-08T06:57:47;2.90;99.90
1778;DHT22;71547;50.146;8.174;2024-03-08T07:00:15;2.90;99.90
1778;DHT22;71547;50.146;8.174;2024-03-08T07:02:45;3.00;99.90
1778;DHT22;71547;50.146;8.174;2024-03-08T07:05:13;3.10;99.90
1778;DHT22;71547;50.146;8.174;2024-03-08T07:07:41;3.10;99.90
1778;DHT22;71547;50.146;8.174;2024-03-08T07:10:09;3.20;99.90
1778;DHT22;71547;50.146;8.174;2024-03-08T07:12:37;3.10;99.90
1778;DHT22;71547;50.146;8.174;2024-03-08T07:15:06;3.20;99.90
1778;DHT22;71547;50.146;8.174;2024-03-08T07:17:33;3.10;99.90
1778;DHT22;71547;50.146;8.174;2024-03-08T07:20:02;3.10;99.90
1778;DHT22;71547;50.146;8.174;2024-03-08T07:22:38;3.20;99.90
1778;DHT22;71547;50.146;8.174;2024-03-08T07:25:08;3.30;99.90
1778;DHT22;71547;50.146;8.174;2024-03-08T07:27:52;3.30;99.90
1778;DHT22;71547;50.146;8.174;2024-03-08T07:30:20;3.40;99.90
1778;DHT22;71547;50.146;8.174;2024-03-08T07:33:07;3.30;99.90
1778;DHT22;71547;50.146;8.174;2024-03-08T07:35:35;3.30;99.90
1778;DHT22;71547;50.146;8.174;2024-03-08T07:38:04;3.30;99.90
1778;DHT22;71547;50.146;8.174;2024-03-08T07:40:35;3.40;99.90
1778;DHT22;71547;50.146;8.174;2024-03-08T07:43:02;3.50;99.90
1778;DHT22;71547;50.146;8.174;2024-03-08T07:45:30;3.50;99.90
1778;DHT22;71547;50.146;8.174;2024-03-08T07:47:57;3.50;99.90
1778;DHT22;71547;50.146;8.174;2024-03-08T07:50:24;3.60;99.90
1778;DHT22;71547;50.146;8.174;2024-03-08T07:52:51;3.70;99.90
1778;DHT22;71547;50.146;8.174;2024-03-08T07:55:18;3.70;99.90
1778;DHT22;71547;50.146;8.174;2024-03-08T07:57:47;3.80;99.90
1778;DHT22;71547;50.146;8.174;2024-03-08T08:00:15;3.70;99.90
1778;DHT22;71547;50.146;8.174;2024-03-08T08:02:45;3.70;99.90
1778;DHT22;71547;50.146;8.174;2024-03-08T08:05:12;3.70;99.90
1778;DHT22;71547;50.146;8.174;2024-03-08T08:07:40;3.80;99.90
1778;DHT22;71547;50.146;8.174;2024-03-08T08:10:11;3.90;99.90
1778;DHT22;71547;50.146;8.174;2024-03-08T08:12:46;3.80;99.90
1778;DHT22;71547;50.146;8.174;2024-03-08T08:15:14;3.80;99.90
1778;DHT22;71547;50.146;8.174;2024-03-08T08:17:44;3.80;99.90
1778;DHT22;71547;50.146;8.174;2024-03-08T08:20:12;3.80;99.90
1778;DHT22;71547;50.146;8.174;2024-03-08T08:22:39;3.90;99.90
1778;DHT22;71547;50.146;8.174;2024-03-08T08:25:08;4.00;99.90
1778;DHT22;71547;50.146;8.174;2024-03-08T08:27:35;4.00;99.90
1778;DHT22;71547;50.146;8.174;2024-03-08T08:30:08;3.90;99.90
1778;DHT22;71547;50.146;8.174;2024-03-08T08:32:38;4.00;99.90
1778;DHT22;71547;50.146;8.174;2024-03-08T08:35:09;4.10;99.90
1778;DHT22;71547;50.146;8.174;2024-03-08T08:37:39;4.10;99.90
1778;DHT22;71547;50.146;8.174;2024-03-08T08:40:07;4.10;99.90
1778;DHT22;71547;50.146;8.174;2024-03-08T08:42:42;4.10;99.90
1778;DHT22;71547;50.146;8.174;2024-03-08T08:45:11;4.20;99.90
1778;DHT22;71547;50.146;8.174;2024-03-08T08:47:43;4.20;99.90
1778;DHT22;71547;50.146;8.174;2024-03-08T08:50:13;4.30;99.90
1778;DHT22;71547;50.146;8.174;2024-03-08T08:52:40;4.40;99.90
1778;DHT22;71547;50.146;8.174;2024-03-08T08:55:10;4.50;99.90
1778;DHT22;71547;50.146;8.174;2024-03-08T08:57:42;4.50;99.90
1778;DHT22;71547;50.146;8.174;2024-03-08T09:00:12;4.60;99.90
1778;DHT22;71547;50.146;8.174;2024-03-08T09:02:42;4.60;99.90
1778;DHT22;71547;50.146;8.174;2024-03-08T09:05:10;4.70;99.90
1778;DHT22;71547;50.146;8.174;2024-03-08T09:07:39;4.80;99.90
1778;DHT22;71547;50.146;8.174;2024-03-08T09:10:07;4.80;99.90
1778;DHT22;71547;50.146;8.174;2024-03-08T09:12:39;4.90;99.90
1778;DHT22;71547;50.146;8.174;2024-03-08T09:15:08;5.00;99.90
1778;DHT22;71547;50.146;8.174;2024-03-08T09:17:40;4.90;99.90
1778;DHT22;71547;50.146;8.174;2024-03-08T09:20:11;5.00;99.90
1778;DHT22;71547;50.146;8.174;2024-03-08T09:22:43;5.00;99.90
1778;DHT22;71547;50.146;8.174;2024-03-08T09:25:11;5.10;99.90
1778;DHT22;71547;50.146;8.174;2024-03-08T09:27:39;5.10;99.90
1778;DHT22;71547;50.146;8.174;2024-03-08T09:30:11;5.20;99.90
1778;DHT22;71547;50.146;8.174;2024-03-08T09:32:49;5.20;99.90
1778;DHT22;71547;50.146;8.174;2024-03-08T09:35:18;5.30;99.90
1778;DHT22;71547;50.146;8.174;2024-03-08T09:37:46;5.30;99.90
1778;DHT22;71547;50.146;8.174;2024-03-08T09:40:18;5.40;99.90
1778;DHT22;71547;50.146;8.174;2024-03-08T09:42:48;5.50;99.90
1778;DHT22;71547;50.146;8.174;2024-03-08T09:45:17;5.50;99.90
1778;DHT22;71547;50.146;8.174;2024-03-08T09:47:45;5.60;99.90
1778;DHT22;71547;50.146;8.174;2024-03-08T09:50:14;5.70;99.90
1778;DHT22;71547;50.146;8.174;2024-03-08T09:52:42;5.80;99.90
1778;DHT22;71547;50.146;8.174;2024-03-08T09:55:12;5.70;99.90
1778;DHT22;71547;50.146;8.174;2024-03-08T09:57:40;5.70;99.90
1778;DHT22;71547;50.146;8.174;2024-03-08T10:00:13;5.80;99.90
1778;DHT22;71547;50.146;8.174;2024-03-08T10:02:51;5.80;99.90
1778;DHT22;71547;50.146;8.174;2024-03-08T10:05:22;5.90;99.90
1778;DHT22;71547;50.146;8.174;2024-03-08T10:07:50;6.00;99.90
1778;DHT22;71547;50.146;8.174;2024-03-08T10:10:17;6.10;99.90
1778;DHT22;71547;50.146;8.174;2024-03-08T10:12:44;6.10;99.90
1778;DHT22;71547;50.146;8.174;2024-03-08T10:15:12;6.10;99.90
1778;DHT22;71547;50.146;8.174;2024-03-08T10:17:43;6.20;99.90
1778;DHT22;71547;50.146;8.174;2024-03-08T10:20:14;6.30;99.90
1778;DHT22;71547;50.146;8.174;2024-03-08T10:22:43;6.40;99.90
1778;DHT22;71547;50.146;8.174;2024-03-08T10:25:24;6.50;99.90
1778;DHT22;71547;50.146;8.174;2024-03-08T10:27:52;6.60;99.90
1778;DHT22;71547;50.146;8.174;2024-03-08T10:30:19;6.70;99.90
1778;DHT22;71547;50.146;8.174;2024-03-08T10:32:48;6.70;99.90
1778;DHT22;71547;50.146;8.174;2024-03-08T10:35:15;6.70;99.90
1778;DHT22;71547;50.146;8.174;2024-03-08T10:37:46;6.80;99.90
1778;DHT22;71547;50.146;8.174;2024-03-08T10:40:16;6.80;99.90
1778;DHT22;71547;50.146;8.174;2024-03-08T10:42:52;6.90;99.90
1778;DHT22;71547;50.146;8.174;2024-03-08T10:45:30;7.00;99.90
1778;DHT22;71547;50.146;8.174;2024-03-08T10:48:18;7.10;99.90
1778;DHT22;71547;50.146;8.174;2024-03-08T10:50:55;7.10;99.90
1778;DHT22;71547;50.146;8.174;2024-03-08T10:53:27;7.10;99.90
1778;DHT22;71547;50.146;8.174;2024-03-08T10:55:56;7.20;99.90
1778;DHT22;71547;50.146;8.174;2024-03-08T10:58:25;7.30;99.90
1778;DHT22;71547;50.146;8.174;2024-03-08T11:00:54;7.40;99.90
1778;DHT22;71547;50.146;8.174;2024-03-08T11:03:43;7.50;99.90
1778;DHT22;71547;50.146;8.174;2024-03-08T11:06:15;7.50;99.90
1778;DHT22;71547;50.146;8.174;2024-03-08T11:08:46;7.40;99.90
1778;DHT22;71547;50.146;8.174;2024-03-08T11:11:24;7.50;99.90
1778;DHT22;71547;50.146;8.174;2024-03-08T11:14:01;7.70;99.80
1778;DHT22;71547;50.146;8.174;2024-03-08T11:16:39;7.90;99.40
1778;DHT22;71547;50.146;8.174;2024-03-08T11:19:24;7.90;99.50
1778;DHT22;71547;50.146;8.174;2024-03-08T11:21:58;7.90;99.20
1778;DHT22;71547;50.146;8.174;2024-03-08T11:24:38;8.00;99.10
1778;DHT22;71547;50.146;8.174;2024-03-08T11:27:09;8.00;98.70
1778;DHT22;71547;50.146;8.174;2024-03-08T11:29:37;8.00;98.30
1778;DHT22;71547;50.146;8.174;2024-03-08T11:32:11;8.10;98.40
1778;DHT22;71547;50.146;8.174;2024-03-08T11:34:41;8.00;98.90
1778;DHT22;71547;50.146;8.174;2024-03-08T11:37:13;8.00;99.00
1778;DHT22;71547;50.146;8.174;2024-03-08T11:39:48;8.20;98.60
1778;DHT22;71547;50.146;8.174;2024-03-08T11:42:19;8.20;98.50
1778;DHT22;71547;50.146;8.174;2024-03-08T11:44:47;8.30;98.10
1778;DHT22;71547;50.146;8.174;2024-03-08T11:47:15;8.30;97.80
1778;DHT22;71547;50.146;8.174;2024-03-08T11:49:43;8.30;98.30
1778;DHT22;71547;50.146;8.174;2024-03-08T11:52:12;8.30;98.20
1778;DHT22;71547;50.146;8.174;2024-03-08T11:54:40;8.40;98.40
1778;DHT22;71547;50.146;8.174;2024-03-08T11:57:09;8.30;98.30
1778;DHT22;71547;50.146;8.174;2024-03-08T11:59:39;8.40;98.10
1778;DHT22;71547;50.146;8.174;2024-03-08T12:02:06;8.50;97.90
1778;DHT22;71547;50.146;8.174;2024-03-08T12:04:37;8.50;97.90
1778;DHT22;71547;50.146;8.174;2024-03-08T12:07:05;8.40;98.30
1778;DHT22;71547;50.146;8.174;2024-03-08T12:09:36;8.50;97.70
1778;DHT22;71547;50.146;8.174;2024-03-08T12:12:06;8.40;98.00
1778;DHT22;71547;50.146;8.174;2024-03-08T12:14:35;8.40;98.00
1778;DHT22;71547;50.146;8.174;2024-03-08T12:17:04;8.40;98.30
1778;DHT22;71547;50.146;8.174;2024-03-08T12:19:33;8.50;97.80
1778;DHT22;71547;50.146;8.174;2024-03-08T12:22:07;8.60;97.70
1778;DHT22;71547;50.146;8.174;2024-03-08T12:24:37;8.50;97.90
1778;DHT22;71547;50.146;8.174;2024-03-08T12:27:19;8.50;98.10
1778;DHT22;71547;50.146;8.174;2024-03-08T12:29:47;8.50;98.00
1778;DHT22;71547;50.146;8.174;2024-03-08T12:32:14;8.60;97.90
1778;DHT22;71547;50.146;8.174;2024-03-08T12:34:42;8.60;97.80
1778;DHT22;71547;50.146;8.174;2024-03-08T12:37:11;8.70;97.40
1778;DHT22;71547;50.146;8.174;2024-03-08T12:39:40;8.80;97.80
1778;DHT22;71547;50.146;8.174;2024-03-08T12:42:12;8.80;97.40
1778;DHT22;71547;50.146;8.174;2024-03-08T12:44:40;8.90;97.50
1778;DHT22;71547;50.146;8.174;2024-03-08T12:47:10;9.00;97.50
1778;DHT22;71547;50.146;8.174;2024-03-08T12:49:37;9.00;97.70
1778;DHT22;71547;50.146;8.174;2024-03-08T12:52:09;9.10;97.20
1778;DHT22;71547;50.146;8.174;2024-03-08T12:54:37;9.10;97.50
1778;DHT22;71547;50.146;8.174;2024-03-08T12:57:04;9.00;97.70
1778;DHT22;71547;50.146;8.174;2024-03-08T12:59:32;9.00;97.80
1778;DHT22;71547;50.146;8.174;2024-03-08T13:02:00;9.10;97.50
1778;DHT22;71547;50.146;8.174;2024-03-08T13:04:28;9.10;97.80
1778;DHT22;71547;50.146;8.174;2024-03-08T13:06:58;9.10;97.60
1778;DHT22;71547;50.146;8.174;2024-03-08T13:09:25;9.10;97.60
1778;DHT22;71547;50.146;8.174;2024-03-08T13:11:54;9.30;97.20
1778;DHT22;71547;50.146;8.174;2024-03-08T13:14:22;9.30;97.20
1778;DHT22;71547;50.146;8.174;2024-03-08T13:16:49;9.20;97.80
1778;DHT22;71547;50.146;8.174;2024-03-08T13:19:19;9.30;97.70
1778;DHT22;71547;50.146;8.174;2024-03-08T13:21:48;9.40;97.40
1778;DHT22;71547;50.146;8.174;2024-03-08T13:24:16;9.40;97.10
1778;DHT22;71547;50.146;8.174;2024-03-08T13:26:45;9.40;97.30
1778;DHT22;71547;50.146;8.174;2024-03-08T13:29:13;9.40;97.00
1778;DHT22;71547;50.146;8.174;2024-03-08T13:31:41;9.40;97.40
1778;DHT22;71547;50.146;8.174;2024-03-08T13:34:08;9.40;97.00
1778;DHT22;71547;50.146;8.174;2024-03-08T13:36:39;9.60;96.90
1778;DHT22;71547;50.146;8.174;2024-03-08T13:39:10;9.60;97.20
1778;DHT22;71547;50.146;8.174;2024-03-08T13:41:42;9.60;97.40
1778;DHT22;71547;50.146;8.174;2024-03-08T13:44:11;9.50;97.30
1778;DHT22;71547;50.146;8.174;2024-03-08T13:46:38;9.60;97.40
1778;DHT22;71547;50.146;8.174;2024-03-08T13:49:06;9.60;97.20
1778;DHT22;71547;50.146;8.174;2024-03-08T13:51:35;9.60;97.30
1778;DHT22;71547;50.146;8.174;2024-03-08T13:54:03;9.80;96.80
1778;DHT22;71547;50.146;8.174;2024-03-08T13:56:33;9.70;97.00
1778;DHT22;71547;50.146;8.174;2024-03-08T13:59:01;9.80;96.80
1778;DHT22;71547;50.146;8.174;2024-03-08T14:01:29;9.70;97.10
1778;DHT22;71547;50.146;8.174;2024-03-08T14:03:57;9.70;97.40
1778;DHT22;71547;50.146;8.174;2024-03-08T14:06:24;9.70;97.30
1778;DHT22;71547;50.146;8.174;2024-03-08T14:08:57;9.70;97.70
1778;DHT22;71547;50.146;8.174;2024-03-08T14:11:26;9.70;97.30
1778;DHT22;71547;50.146;8.174;2024-03-08T14:13:53;9.70;97.00
1778;DHT22;71547;50.146;8.174;2024-03-08T14:16:20;9.80;96.90
1778;DHT22;71547;50.146;8.174;2024-03-08T14:18:48;9.70;97.20
1778;DHT22;71547;50.146;8.174;2024-03-08T14:21:15;9.70;97.30
1778;DHT22;71547;50.146;8.174;2024-03-08T14:23:44;9.70;97.10
1778;DHT22;71547;50.146;8.174;2024-03-08T14:26:11;9.80;97.30
1778;DHT22;71547;50.146;8.174;2024-03-08T14:28:39;9.90;97.00
1778;DHT22;71547;50.146;8.174;2024-03-08T14:31:07;10.00;96.90
1778;DHT22;71547;50.146;8.174;2024-03-08T14:33:38;10.00;97.10
1778;DHT22;71547;50.146;8.174;2024-03-08T14:36:06;10.00;96.90
1778;DHT22;71547;50.146;8.174;2024-03-08T14:38:33;10.10;96.90
1778;DHT22;71547;50.146;8.174;2024-03-08T14:41:02;10.20;96.60
1778;DHT22;71547;50.146;8.174;2024-03-08T14:43:32;10.10;96.30
1778;DHT22;71547;50.146;8.174;2024-03-08T14:46:01;10.10;96.50
1778;DHT22;71547;50.146;8.174;2024-03-08T14:48:29;10.10;96.70
1778;DHT22;71547;50.146;8.174;2024-03-08T14:50:57;10.10;96.70
1778;DHT22;71547;50.146;8.174;2024-03-08T14:53:24;10.30;96.70
1778;DHT22;71547;50.146;8.174;2024-03-08T14:55:52;10.40;96.90
1778;DHT22;71547;50.146;8.174;2024-03-08T14:58:19;10.40;96.50
1778;DHT22;71547;50.146;8.174;2024-03-08T15:00:48;10.50;96.40
1778;DHT22;71547;50.146;8.174;2024-03-08T15:03:19;10.60;96.40
1778;DHT22;71547;50.146;8.174;2024-03-08T15:05:46;10.60;96.40
1778;DHT22;71547;50.146;8.174;2024-03-08T15:08:15;10.60;96.30
1778;DHT22;71547;50.146;8.174;2024-03-08T15:10:50;10.70;96.10
1778;DHT22;71547;50.146;8.174;2024-03-08T15:13:22;10.80;95.70
1778;DHT22;71547;50.146;8.174;2024-03-08T15:15:50;10.90;95.80
1778;DHT22;71547;50.146;8.174;2024-03-08T15:18:26;11.00;95.70
1778;DHT22;71547;50.146;8.174;2024-03-08T15:20:57;11.10;95.70
1778;DHT22;71547;50.146;8.174;2024-03-08T15:23:25;11.20;95.60
1778;DHT22;71547;50.146;8.174;2024-03-08T15:25:52;11.30;95.20
1778;DHT22;71547;50.146;8.174;2024-03-08T15:28:19;11.40;95.30
1778;DHT22;71547;50.146;8.174;2024-03-08T15:30:47;11.50;95.10
1778;DHT22;71547;50.146;8.174;2024-03-08T15:33:21;11.80;94.80
1778;DHT22;71547;50.146;8.174;2024-03-08T15:35:55;12.20;94.80
1778;DHT22;71547;50.146;8.174;2024-03-08T15:38:27;12.50;94.00
1778;DHT22;71547;50.146;8.174;2024-03-08T15:40:54;12.70;93.60
1778;DHT22;71547;50.146;8.174;2024-03-08T15:43:21;13.00;93.40
1778;DHT22;71547;50.146;8.174;2024-03-08T15:45:49;13.20;93.00
1778;DHT22;71547;50.146;8.174;2024-03-08T15:48:16;13.30;92.40
1778;DHT22;71547;50.146;8.174;2024-03-08T15:50:43;13.60;92.40
1778;DHT22;71547;50.146;8.174;2024-03-08T15:53:12;14.10;91.80
1778;DHT22;71547;50.146;8.174;2024-03-08T15:55:39;14.60;91.20
1778;DHT22;71547;50.146;8.174;2024-03-08T15:58:08;15.30;90.30
1778;DHT22;71547;50.146;8.174;2024-03-08T16:00:39;16.00;89.60
1778;DHT22;71547;50.146;8.174;2024-03-08T16:03:14;17.00;87.10
1778;DHT22;71547;50.146;8.174;2024-03-08T16:05:42;17.80;84.60
1778;DHT22;71547;50.146;8.174;2024-03-08T16:08:15;18.40;81.80
1778;DHT22;71547;50.146;8.174;2024-03-08T16:10:44;18.90;79.80
1778;DHT22;71547;50.146;8.174;2024-03-08T16:13:22;18.80;78.10
1778;DHT22;71547;50.146;8.174;2024-03-08T16:15:51;18.80;77.90
1778;DHT22;71547;50.146;8.174;2024-03-08T16:18:19;18.80;76.30